KDUC/DUC METAR and TAF weather

Enter ICAO airport designator
Station Type Date Time Source
KDUC METAR 2022/06/26 07:55 UTC NOAA

KDUC 260755Z AUTO 10004KT 10SM CLR 26/15 A3004 RMK AO2 T02590150


Station Type Date Time Source
KDUC Decoded METAR 2022/06/26 07:55 UTC NOAA

Duncan, Halliburton Field Airport, OK, United States (KDUC) 34-28-15N 097-57-36W
Jun 26, 2022 - 03:55 AM EDT / 2022.06.26 0755 UTC
Wind: from the E (100 degrees) at 5 MPH (4 KT):0
Visibility: 10 mile(s):0
Sky conditions: clear
Temperature: 78.6 F (25.9 C)
Dew Point: 59.0 F (15.0 C)
Relative Humidity: 51%
Pressure (altimeter): 30.04 in. Hg (1017 hPa)
ob: KDUC 260755Z AUTO 10004KT 10SM CLR 26/15 A3004 RMK AO2 T02590150
cycle: 8

Station Type Date Time Source
KDUC TAF UTC NOAA

Error!

Example: see airport list